createdAt,value
2023-07-16T00:00:19.779Z,44.89
2023-07-16T00:01:26.369Z,45.78
2023-07-16T00:02:28.444Z,44.31
2023-07-16T00:03:31.398Z,44.02
2023-07-16T00:04:33.777Z,44.14
2023-07-16T00:05:38.625Z,44.94
2023-07-16T00:06:40.545Z,44.52
2023-07-16T00:07:43.541Z,44.44
2023-07-16T00:08:46.429Z,44.44
2023-07-16T00:09:50.894Z,44.78
2023-07-16T00:10:52.825Z,45.08
2023-07-16T00:11:55.849Z,45.73
2023-07-16T00:12:57.921Z,45.28
2023-07-16T00:14:02.914Z,45.94
2023-07-16T00:15:07.280Z,45.84
2023-07-16T00:16:11.555Z,46.08
2023-07-16T00:17:13.438Z,45.80
2023-07-16T00:18:16.523Z,45.60
2023-07-16T00:19:18.497Z,45.22
2023-07-16T00:20:21.653Z,45.08
2023-07-16T00:21:23.739Z,45.88
2023-07-16T00:22:27.454Z,46.04
2023-07-16T00:23:29.429Z,45.70
2023-07-16T00:24:32.377Z,46.26
2023-07-16T00:25:36.374Z,46.13
2023-07-16T00:26:39.240Z,45.31
2023-07-16T00:27:41.121Z,45.86
2023-07-16T00:28:45.410Z,46.12
2023-07-16T00:29:47.444Z,45.58
2023-07-16T00:30:50.461Z,45.69
2023-07-16T00:31:52.437Z,46.25
2023-07-16T00:32:55.492Z,45.84
2023-07-16T00:33:57.549Z,46.17
2023-07-16T00:35:00.558Z,45.89
2023-07-16T00:36:02.768Z,45.67
2023-07-16T00:37:06.198Z,45.57
2023-07-16T00:38:09.092Z,45.38
2023-07-16T00:39:12.207Z,45.81
2023-07-16T00:40:14.679Z,45.77
2023-07-16T00:41:18.939Z,45.60
2023-07-16T00:42:20.794Z,45.07
2023-07-16T00:43:22.821Z,45.08
2023-07-16T00:44:25.770Z,45.26
2023-07-16T00:45:27.807Z,45.55
2023-07-16T00:46:31.050Z,45.93
2023-07-16T00:47:33.109Z,46.10
2023-07-16T00:48:36.492Z,46.91
2023-07-16T00:49:39.621Z,45.91
2023-07-16T00:50:43.316Z,46.47
2023-07-16T00:51:45.844Z,46.32
2023-07-16T00:52:48.992Z,45.94
2023-07-16T00:53:51.549Z,46.51
2023-07-16T00:54:54.567Z,46.60
2023-07-16T00:55:58.969Z,46.25
2023-07-16T00:57:03.314Z,46.39
2023-07-16T00:58:06.600Z,45.53
2023-07-16T00:59:10.657Z,46.16
2023-07-16T01:00:13.712Z,45.73
2023-07-16T01:01:16.796Z,46.85
2023-07-16T01:02:18.948Z,46.27
2023-07-16T01:03:21.890Z,46.38
2023-07-16T01:04:23.923Z,46.73
2023-07-16T01:05:34.314Z,45.91
2023-07-16T01:06:39.612Z,46.15
2023-07-16T01:07:54.744Z,47.01
2023-07-16T01:09:02.763Z,46.96
2023-07-16T01:10:06.769Z,47.08
2023-07-16T01:11:09.325Z,46.83
2023-07-16T01:12:15.645Z,46.82
2023-07-16T01:13:18.030Z,47.12
2023-07-16T01:14:21.782Z,46.31
2023-07-16T01:15:23.674Z,47.46
2023-07-16T01:16:27.391Z,46.85
2023-07-16T01:17:29.582Z,46.47
2023-07-16T01:18:32.472Z,46.89
2023-07-16T01:19:34.406Z,46.83
2023-07-16T01:20:38.298Z,47.49
2023-07-16T01:21:47.506Z,47.25
2023-07-16T01:23:10.609Z,47.01
2023-07-16T01:24:30.718Z,46.60
2023-07-16T01:25:53.297Z,47.34
2023-07-16T01:27:26.168Z,46.88
2023-07-16T01:28:46.811Z,47.66
2023-07-16T01:29:55.313Z,47.15
2023-07-16T01:31:01.501Z,47.40
2023-07-16T01:32:05.080Z,47.25
2023-07-16T01:33:11.367Z,47.48
2023-07-16T01:34:15.011Z,48.04
2023-07-16T01:35:18.132Z,46.81
2023-07-16T01:36:21.536Z,47.12
2023-07-16T01:37:24.654Z,47.38
2023-07-16T01:38:26.652Z,47.65
2023-07-16T01:39:29.749Z,47.28
2023-07-16T01:40:31.818Z,47.56
2023-07-16T01:41:34.676Z,48.18
2023-07-16T01:42:37.257Z,47.99
2023-07-16T01:43:40.126Z,47.84
2023-07-16T01:44:43.403Z,47.65
2023-07-16T01:45:47.889Z,47.48
2023-07-16T01:47:04.963Z,48.09
2023-07-16T01:48:18.590Z,48.45
2023-07-16T01:49:20.569Z,47.98
2023-07-16T01:50:23.838Z,48.28
2023-07-16T01:51:26.539Z,47.53
2023-07-16T01:52:29.474Z,48.11
2023-07-16T01:53:32.665Z,48.49
2023-07-16T01:54:35.562Z,48.36
2023-07-16T01:55:37.480Z,47.69
2023-07-16T01:56:40.522Z,47.71
2023-07-16T01:57:42.448Z,47.90
2023-07-16T01:58:45.357Z,48.09
2023-07-16T01:59:47.870Z,48.20
2023-07-16T02:00:52.748Z,49.11
2023-07-16T02:01:54.682Z,47.52
2023-07-16T02:02:57.852Z,48.35
2023-07-16T02:03:59.876Z,48.20
2023-07-16T02:05:03.277Z,48.48
2023-07-16T02:06:05.172Z,48.52
2023-07-16T02:07:10.217Z,48.32
2023-07-16T02:08:12.062Z,49.19
2023-07-16T02:09:14.938Z,48.56
2023-07-16T02:10:18.581Z,48.74
2023-07-16T02:11:23.946Z,48.62
2023-07-16T02:12:25.855Z,48.17
2023-07-16T02:13:29.670Z,48.08
2023-07-16T02:14:31.594Z,48.93
2023-07-16T02:15:34.480Z,48.67
2023-07-16T02:16:39.957Z,48.86
2023-07-16T02:17:42.895Z,49.34
2023-07-16T02:18:44.858Z,48.96
2023-07-16T02:19:47.975Z,48.57
2023-07-16T02:20:49.886Z,48.76
2023-07-16T02:21:52.780Z,49.18
2023-07-16T02:22:54.704Z,48.77
2023-07-16T02:23:57.876Z,48.21
2023-07-16T02:25:01.582Z,48.44
2023-07-16T02:26:04.450Z,48.13
2023-07-16T02:27:07.054Z,48.34
2023-07-16T02:28:09.064Z,48.19
2023-07-16T02:29:11.963Z,48.08
2023-07-16T02:30:15.371Z,48.53
2023-07-16T02:31:20.015Z,48.77
2023-07-16T02:32:23.305Z,48.04
2023-07-16T02:33:26.240Z,48.55
2023-07-16T02:34:28.103Z,48.01
2023-07-16T02:35:31.492Z,48.30
2023-07-16T02:36:33.404Z,48.61
2023-07-16T02:37:36.424Z,48.65
2023-07-16T02:38:38.350Z,48.52
2023-07-16T02:39:41.660Z,48.72
2023-07-16T02:40:45.329Z,48.79
2023-07-16T02:41:48.273Z,48.17
2023-07-16T02:42:50.220Z,48.40
2023-07-16T02:44:02.498Z,48.81
2023-07-16T02:45:05.405Z,48.04
2023-07-16T02:46:08.460Z,48.57
2023-07-16T02:47:10.446Z,48.66
2023-07-16T02:48:13.873Z,48.04
2023-07-16T02:49:19.124Z,48.43
2023-07-16T02:50:21.031Z,48.38
2023-07-16T02:51:24.088Z,49.11
2023-07-16T02:52:26.120Z,48.80
2023-07-16T02:53:29.285Z,48.71
2023-07-16T02:54:31.226Z,48.73
2023-07-16T02:55:34.839Z,48.44
2023-07-16T02:56:36.767Z,48.70
2023-07-16T02:57:39.973Z,48.55
2023-07-16T02:58:43.484Z,48.79
2023-07-16T02:59:46.519Z,48.50
2023-07-16T03:00:48.749Z,49.04
2023-07-16T03:01:52.346Z,48.80
2023-07-16T03:02:54.370Z,49.58
2023-07-16T03:03:58.887Z,49.35
2023-07-16T03:05:00.760Z,49.66
2023-07-16T03:06:04.155Z,49.22
2023-07-16T03:07:06.462Z,49.35
2023-07-16T03:08:09.386Z,49.31
2023-07-16T03:09:11.712Z,49.67
2023-07-16T03:10:14.574Z,49.44
2023-07-16T03:11:16.479Z,49.06
2023-07-16T03:12:19.716Z,48.78
2023-07-16T03:13:21.676Z,49.76
2023-07-16T03:14:24.658Z,49.22
2023-07-16T03:15:27.087Z,49.39
2023-07-16T03:16:30.056Z,48.77
2023-07-16T03:17:32.080Z,49.17
2023-07-16T03:18:35.228Z,49.49
2023-07-16T03:19:38.569Z,49.99
2023-07-16T03:20:41.525Z,49.67
2023-07-16T03:21:43.977Z,49.40
2023-07-16T03:22:47.138Z,49.14
2023-07-16T03:23:49.109Z,50.26
2023-07-16T03:24:51.991Z,49.79
2023-07-16T03:25:53.977Z,49.64
2023-07-16T03:27:08.277Z,49.43
2023-07-16T03:28:19.218Z,49.34
2023-07-16T03:29:22.667Z,49.44
2023-07-16T03:30:25.320Z,49.43
2023-07-16T03:31:28.363Z,49.68
2023-07-16T03:32:41.913Z,50.30
2023-07-16T03:33:49.413Z,49.01
2023-07-16T03:34:53.179Z,49.86
2023-07-16T03:35:56.118Z,49.19
2023-07-16T03:36:59.046Z,49.58
2023-07-16T03:38:01.285Z,48.61
2023-07-16T03:39:05.507Z,49.64
2023-07-16T03:40:17.224Z,49.74
2023-07-16T03:41:22.192Z,49.34
2023-07-16T03:42:24.387Z,49.02
2023-07-16T03:43:26.360Z,49.25
2023-07-16T03:44:36.436Z,49.35
2023-07-16T03:45:39.556Z,49.96
2023-07-16T03:46:42.575Z,49.59
2023-07-16T03:47:44.675Z,49.52
2023-07-16T03:48:47.579Z,49.97
2023-07-16T03:49:51.246Z,50.04
2023-07-16T03:50:54.687Z,49.75
2023-07-16T03:51:57.637Z,49.94
2023-07-16T03:53:00.141Z,49.49
2023-07-16T03:54:03.915Z,49.62
2023-07-16T03:55:09.165Z,50.34
2023-07-16T03:56:12.330Z,49.90
2023-07-16T03:57:14.270Z,49.55
2023-07-16T03:58:17.287Z,49.95
2023-07-16T03:59:20.540Z,50.23
2023-07-16T04:00:23.672Z,49.61
2023-07-16T04:01:28.374Z,49.82
2023-07-16T04:02:31.330Z,50.20
2023-07-16T04:03:33.378Z,50.03
2023-07-16T04:04:36.302Z,49.87
2023-07-16T04:05:39.095Z,49.47
2023-07-16T04:06:44.258Z,49.73
2023-07-16T04:07:46.361Z,50.36
2023-07-16T04:08:49.326Z,50.89
2023-07-16T04:09:51.333Z,50.91
2023-07-16T04:10:56.675Z,51.18
2023-07-16T04:11:59.133Z,51.06
2023-07-16T04:13:02.080Z,50.62
2023-07-16T04:14:04.085Z,51.62
2023-07-16T04:15:11.003Z,51.42
2023-07-16T04:16:12.960Z,51.52
2023-07-16T04:17:15.854Z,51.15
2023-07-16T04:18:17.960Z,50.75
2023-07-16T04:19:20.808Z,51.49
2023-07-16T04:20:22.796Z,51.19
2023-07-16T04:21:25.916Z,51.10
2023-07-16T04:22:29.525Z,51.09
2023-07-16T04:23:32.478Z,51.82
2023-07-16T04:24:34.345Z,51.31
2023-07-16T04:25:37.192Z,52.00
2023-07-16T04:26:39.196Z,50.93
2023-07-16T04:27:42.863Z,52.04
2023-07-16T04:28:44.783Z,51.74
2023-07-16T04:29:47.704Z,51.89
2023-07-16T04:30:49.599Z,51.71
2023-07-16T04:31:52.617Z,52.54
2023-07-16T04:32:54.559Z,51.62
2023-07-16T04:33:57.486Z,51.77
2023-07-16T04:34:59.384Z,52.11
2023-07-16T04:36:02.237Z,52.14
2023-07-16T04:37:04.198Z,51.80
2023-07-16T04:38:09.114Z,52.49
2023-07-16T04:39:11.103Z,51.82
2023-07-16T04:40:14.188Z,52.33
2023-07-16T04:41:17.571Z,52.34
2023-07-16T04:42:22.048Z,52.47
2023-07-16T04:43:24.024Z,51.94
2023-07-16T04:44:27.035Z,50.95
2023-07-16T04:45:29.006Z,51.75
2023-07-16T04:46:32.189Z,51.38
2023-07-16T04:47:34.227Z,51.85
2023-07-16T04:48:37.152Z,51.48
2023-07-16T04:49:39.061Z,51.27
2023-07-16T04:50:42.054Z,52.21
2023-07-16T04:51:44.077Z,52.28
2023-07-16T04:52:47.197Z,51.85
2023-07-16T04:53:51.179Z,52.60
2023-07-16T04:54:54.201Z,51.58
2023-07-16T04:55:56.116Z,52.04
2023-07-16T04:56:59.081Z,51.89
2023-07-16T04:58:01.023Z,52.11
2023-07-16T04:59:03.956Z,51.93
2023-07-16T05:00:07.578Z,51.90
2023-07-16T05:01:11.494Z,52.41
2023-07-16T05:02:15.176Z,51.81
2023-07-16T05:03:18.222Z,51.91
2023-07-16T05:04:20.178Z,52.12
2023-07-16T05:05:23.082Z,52.38
2023-07-16T05:06:25.001Z,52.64
2023-07-16T05:07:27.946Z,52.81
2023-07-16T05:08:30.213Z,52.48
2023-07-16T05:09:34.536Z,52.38
2023-07-16T05:10:36.514Z,53.12
2023-07-16T05:11:39.705Z,52.13
2023-07-16T05:12:41.662Z,52.79
2023-07-16T05:13:44.575Z,51.81
2023-07-16T05:14:47.832Z,54.78
2023-07-16T05:15:50.898Z,53.15
2023-07-16T05:16:52.906Z,53.42
2023-07-16T05:17:55.975Z,52.02
2023-07-16T05:18:58.053Z,52.88
2023-07-16T05:20:01.126Z,52.22
2023-07-16T05:21:03.161Z,51.91
2023-07-16T05:22:06.474Z,52.11
2023-07-16T05:23:08.554Z,50.71
2023-07-16T05:24:11.461Z,51.22
2023-07-16T05:25:15.054Z,50.55
2023-07-16T05:26:18.137Z,51.05
2023-07-16T05:27:20.309Z,51.05
2023-07-16T05:28:23.312Z,51.60
2023-07-16T05:29:25.388Z,52.32
2023-07-16T05:30:28.386Z,52.42
2023-07-16T05:31:30.351Z,51.25
2023-07-16T05:32:33.396Z,52.94
2023-07-16T05:33:35.399Z,54.38
2023-07-16T05:34:38.506Z,52.45
2023-07-16T05:35:41.246Z,54.34
2023-07-16T05:36:45.454Z,53.74
2023-07-16T05:37:48.580Z,55.63
2023-07-16T05:38:51.579Z,55.40
2023-07-16T05:39:53.501Z,54.68
2023-07-16T05:41:03.075Z,53.18
2023-07-16T05:42:05.710Z,52.11
2023-07-16T05:43:08.654Z,54.70
2023-07-16T05:44:11.313Z,52.85
2023-07-16T05:45:14.328Z,54.32
2023-07-16T05:46:16.545Z,52.56
2023-07-16T05:47:19.768Z,53.30
2023-07-16T05:48:22.201Z,53.88
2023-07-16T05:49:26.848Z,53.59
2023-07-16T05:50:29.041Z,54.49
2023-07-16T05:51:33.681Z,53.82
2023-07-16T05:52:35.615Z,53.66
2023-07-16T05:53:40.776Z,55.18
2023-07-16T05:54:44.562Z,52.95
2023-07-16T05:55:47.460Z,56.22
2023-07-16T05:56:51.258Z,54.96
2023-07-16T05:57:54.331Z,55.25
2023-07-16T05:58:57.529Z,54.76
2023-07-16T06:00:00.471Z,54.58
2023-07-16T06:01:02.650Z,56.79
2023-07-16T06:02:06.302Z,56.57
2023-07-16T06:03:08.348Z,56.88
2023-07-16T06:04:12.044Z,56.44
2023-07-16T06:05:14.069Z,57.19
2023-07-16T06:06:17.450Z,56.33
2023-07-16T06:07:19.730Z,56.63
2023-07-16T06:08:22.699Z,56.23
2023-07-16T06:09:24.789Z,54.14
2023-07-16T06:10:28.182Z,56.68
2023-07-16T06:11:30.128Z,56.92
2023-07-16T06:12:34.520Z,57.16
2023-07-16T06:13:36.711Z,56.68
2023-07-16T06:14:39.736Z,56.77
2023-07-16T06:15:41.745Z,57.42
2023-07-16T06:16:45.003Z,56.87
2023-07-16T06:17:47.241Z,56.67
2023-07-16T06:18:50.217Z,57.30
2023-07-16T06:19:52.993Z,57.52
2023-07-16T06:20:56.349Z,57.23
2023-07-16T06:21:58.742Z,57.50
2023-07-16T06:23:01.787Z,58.39
2023-07-16T06:24:04.032Z,57.97
2023-07-16T06:25:08.047Z,57.13
2023-07-16T06:26:10.370Z,57.72
2023-07-16T06:27:13.632Z,57.70
2023-07-16T06:28:17.068Z,56.28
2023-07-16T06:29:20.135Z,54.35
2023-07-16T06:30:22.267Z,53.92
2023-07-16T06:31:27.064Z,54.42
2023-07-16T06:32:29.252Z,53.98
2023-07-16T06:33:32.360Z,52.88
2023-07-16T06:34:34.334Z,53.78
2023-07-16T06:35:36.755Z,53.70
2023-07-16T06:36:40.361Z,52.08
2023-07-16T06:37:42.378Z,51.91
2023-07-16T06:38:45.338Z,51.58
2023-07-16T06:39:47.537Z,51.77
2023-07-16T06:40:51.465Z,51.41
2023-07-16T06:41:53.485Z,52.17
2023-07-16T06:42:57.862Z,51.75
2023-07-16T06:44:01.134Z,52.14
2023-07-16T06:45:04.266Z,51.92
2023-07-16T06:46:06.260Z,52.61
2023-07-16T06:47:09.435Z,52.61
2023-07-16T06:48:11.600Z,52.76
2023-07-16T06:49:14.470Z,51.94
2023-07-16T06:50:16.546Z,52.12
2023-07-16T06:51:22.014Z,52.25
2023-07-16T06:52:25.651Z,52.64
2023-07-16T06:53:28.670Z,53.09
2023-07-16T06:54:30.664Z,53.31
2023-07-16T06:55:33.606Z,54.18
2023-07-16T06:56:35.544Z,52.88
2023-07-16T06:57:38.505Z,52.71
2023-07-16T06:58:40.399Z,53.54
2023-07-16T06:59:44.610Z,53.06
2023-07-16T07:00:46.639Z,52.13
2023-07-16T07:01:49.635Z,52.52
2023-07-16T07:02:51.587Z,52.83
2023-07-16T07:03:54.608Z,53.15
2023-07-16T07:04:56.596Z,53.58
2023-07-16T07:05:59.489Z,53.37
2023-07-16T07:07:01.474Z,53.83
2023-07-16T07:08:04.945Z,53.85
2023-07-16T07:09:06.878Z,53.65
2023-07-16T07:10:10.259Z,53.35
2023-07-16T07:11:12.244Z,53.51
2023-07-16T07:12:15.234Z,53.28
2023-07-16T07:13:17.140Z,53.61
2023-07-16T07:14:20.063Z,53.81
2023-07-16T07:15:23.289Z,54.04
2023-07-16T07:16:26.336Z,53.93
2023-07-16T07:17:28.358Z,53.85
2023-07-16T07:18:31.220Z,54.62
2023-07-16T07:19:33.342Z,54.04
2023-07-16T07:20:36.224Z,53.44
2023-07-16T07:21:38.156Z,54.33
2023-07-16T07:22:41.496Z,54.09
2023-07-16T07:23:43.474Z,53.71
2023-07-16T07:24:46.644Z,53.16
2023-07-16T07:25:51.075Z,54.26
2023-07-16T07:26:53.926Z,54.04
2023-07-16T07:27:56.232Z,53.39
2023-07-16T07:28:59.141Z,53.53
2023-07-16T07:30:01.134Z,53.33
2023-07-16T07:31:05.464Z,53.95
2023-07-16T07:32:08.672Z,54.35
2023-07-16T07:33:11.715Z,53.98
2023-07-16T07:34:13.645Z,53.44
2023-07-16T07:35:16.684Z,53.60
2023-07-16T07:36:19.047Z,53.87
2023-07-16T07:37:22.298Z,54.22
2023-07-16T07:38:24.520Z,53.28
2023-07-16T07:39:27.490Z,54.27
2023-07-16T07:40:29.368Z,54.25
2023-07-16T07:41:31.271Z,53.32
2023-07-16T07:42:34.142Z,53.45
2023-07-16T07:43:36.105Z,54.04
2023-07-16T07:44:38.982Z,53.93
2023-07-16T07:45:40.911Z,53.77
2023-07-16T07:46:45.202Z,53.33
2023-07-16T07:47:47.308Z,53.34
2023-07-16T07:48:50.385Z,53.08
2023-07-16T07:49:53.376Z,53.23
2023-07-16T07:50:56.272Z,53.69
2023-07-16T07:51:58.170Z,53.02
2023-07-16T07:53:02.051Z,53.21
2023-07-16T07:54:04.128Z,52.95
2023-07-16T07:55:07.701Z,54.15
2023-07-16T07:56:09.531Z,53.56
2023-07-16T07:57:12.891Z,52.75
2023-07-16T07:58:14.803Z,53.09
2023-07-16T07:59:17.927Z,52.94
2023-07-16T08:00:21.572Z,52.84
2023-07-16T08:01:24.622Z,53.01
2023-07-16T08:02:27.951Z,53.37
2023-07-16T08:03:31.203Z,53.30
2023-07-16T08:04:33.363Z,53.27
2023-07-16T08:05:36.857Z,53.40
2023-07-16T08:06:38.744Z,52.28
2023-07-16T08:07:41.613Z,52.81
2023-07-16T08:08:43.544Z,52.88
2023-07-16T08:09:47.521Z,53.15
2023-07-16T08:10:49.561Z,52.93
2023-07-16T08:11:52.449Z,53.20
2023-07-16T08:12:54.340Z,52.39
2023-07-16T08:13:57.561Z,53.02
2023-07-16T08:14:59.669Z,53.56
2023-07-16T08:16:02.610Z,53.01
2023-07-16T08:17:05.262Z,51.90
2023-07-16T08:18:10.045Z,51.67
2023-07-16T08:19:12.081Z,51.83
2023-07-16T08:20:13.986Z,51.67
2023-07-16T08:21:21.338Z,51.26
2023-07-16T08:22:25.009Z,51.28
2023-07-16T08:23:28.056Z,51.75
2023-07-16T08:24:29.950Z,50.98
2023-07-16T08:25:32.844Z,50.88
2023-07-16T08:26:35.042Z,51.27
2023-07-16T08:27:37.925Z,51.50
2023-07-16T08:28:41.270Z,51.08
2023-07-16T08:29:46.284Z,51.14
2023-07-16T08:30:49.191Z,51.59
2023-07-16T08:31:52.739Z,51.02
2023-07-16T08:32:54.680Z,50.97
2023-07-16T08:34:00.455Z,50.52
2023-07-16T08:35:05.073Z,50.75
2023-07-16T08:36:08.201Z,50.88
2023-07-16T08:37:10.170Z,50.88
2023-07-16T08:38:13.007Z,50.96
2023-07-16T08:39:14.944Z,50.79
2023-07-16T08:40:18.077Z,50.96
2023-07-16T08:41:20.220Z,51.02
2023-07-16T08:42:23.400Z,50.74
2023-07-16T08:43:25.674Z,51.05
2023-07-16T08:44:29.358Z,50.73
2023-07-16T08:45:31.694Z,50.27
2023-07-16T08:46:34.835Z,50.61
2023-07-16T08:47:37.079Z,50.12
2023-07-16T08:48:39.984Z,50.21
2023-07-16T08:49:52.680Z,50.18
2023-07-16T08:50:57.382Z,50.41
2023-07-16T08:52:00.324Z,50.60
2023-07-16T08:53:03.920Z,51.21
2023-07-16T08:54:06.105Z,50.54
2023-07-16T08:55:10.000Z,51.01
2023-07-16T08:56:12.045Z,51.01
2023-07-16T08:57:16.424Z,50.87
2023-07-16T08:58:19.210Z,50.77
2023-07-16T08:59:23.066Z,51.15
2023-07-16T09:00:27.047Z,50.95
2023-07-16T09:01:30.129Z,51.03
2023-07-16T09:02:32.214Z,51.09
2023-07-16T09:03:35.238Z,50.98
2023-07-16T09:04:37.162Z,51.17
2023-07-16T09:05:41.691Z,51.30
2023-07-16T09:06:43.707Z,51.21
2023-07-16T09:07:45.665Z,51.60
2023-07-16T09:08:48.695Z,51.31
2023-07-16T09:09:59.448Z,50.91
2023-07-16T09:11:02.355Z,51.40
2023-07-16T09:12:04.811Z,51.43
2023-07-16T09:13:08.414Z,51.06
2023-07-16T09:14:10.287Z,51.67
2023-07-16T09:15:13.780Z,51.32
2023-07-16T09:16:17.721Z,51.14
2023-07-16T09:17:22.952Z,51.78
2023-07-16T09:18:26.750Z,51.29
2023-07-16T09:19:29.663Z,51.45
2023-07-16T09:20:31.906Z,51.58
2023-07-16T09:21:36.877Z,50.74
2023-07-16T09:22:39.711Z,50.79
2023-07-16T09:23:43.779Z,50.59
2023-07-16T09:24:46.538Z,50.34
2023-07-16T09:25:51.681Z,51.21
2023-07-16T09:26:54.847Z,50.61
2023-07-16T09:28:00.763Z,50.91
2023-07-16T09:29:06.987Z,50.67
2023-07-16T09:30:18.042Z,50.69
2023-07-16T09:31:20.090Z,50.61
2023-07-16T09:32:23.026Z,50.53
2023-07-16T09:33:27.975Z,50.13
2023-07-16T09:34:31.721Z,49.70
2023-07-16T09:35:37.518Z,49.52
2023-07-16T09:36:41.772Z,49.31
2023-07-16T09:37:44.075Z,49.46
2023-07-16T09:38:47.726Z,49.07
2023-07-16T09:39:49.854Z,49.21
2023-07-16T09:40:54.122Z,49.55
2023-07-16T09:41:57.551Z,48.97
2023-07-16T09:43:00.899Z,48.96
2023-07-16T09:44:03.006Z,49.16
2023-07-16T09:45:08.084Z,49.21
2023-07-16T09:46:10.234Z,49.17
2023-07-16T09:47:13.262Z,49.47
2023-07-16T09:48:15.733Z,49.44
2023-07-16T09:49:18.835Z,49.08
2023-07-16T09:50:23.214Z,49.34
2023-07-16T09:51:27.993Z,49.85
2023-07-16T09:52:33.032Z,49.57
2023-07-16T09:53:39.006Z,49.45
2023-07-16T09:54:42.392Z,49.41
2023-07-16T09:55:45.681Z,49.30
2023-07-16T09:56:51.323Z,49.43
2023-07-16T09:57:57.177Z,49.04
2023-07-16T09:59:00.786Z,49.43
2023-07-16T10:00:08.143Z,49.81
2023-07-16T10:01:15.790Z,49.65
2023-07-16T10:02:19.420Z,49.68
2023-07-16T10:03:21.429Z,49.38
2023-07-16T10:04:24.708Z,49.18
2023-07-16T10:05:28.830Z,49.37
2023-07-16T10:06:31.843Z,49.07
2023-07-16T10:07:35.146Z,48.69
2023-07-16T10:08:37.984Z,48.38
2023-07-16T10:09:41.578Z,48.42
2023-07-16T10:10:47.205Z,48.64
2023-07-16T10:11:49.647Z,48.76
2023-07-16T10:13:00.665Z,48.12
2023-07-16T10:14:02.733Z,47.72
2023-07-16T10:15:07.651Z,47.80
2023-07-16T10:16:12.246Z,47.90
2023-07-16T10:17:16.959Z,48.63
2023-07-16T10:18:25.175Z,48.60
2023-07-16T10:19:28.069Z,48.01
2023-07-16T10:20:31.607Z,47.96
2023-07-16T10:21:39.372Z,47.83
2023-07-16T10:22:44.519Z,48.16
2023-07-16T10:23:47.565Z,48.30
2023-07-16T10:24:54.404Z,48.17
2023-07-16T10:26:01.143Z,48.11
2023-07-16T10:27:03.762Z,47.99
2023-07-16T10:28:06.849Z,48.37
2023-07-16T10:29:08.859Z,48.33
2023-07-16T10:30:12.333Z,48.09
2023-07-16T10:31:22.587Z,47.72
2023-07-16T10:32:28.432Z,48.39
2023-07-16T10:33:31.461Z,48.08
2023-07-16T10:34:33.403Z,47.70
2023-07-16T10:35:38.455Z,48.07
2023-07-16T10:36:41.427Z,48.62
2023-07-16T10:37:46.022Z,49.00
2023-07-16T10:38:48.009Z,48.70
2023-07-16T10:39:51.553Z,48.59
2023-07-16T10:40:55.307Z,48.45
2023-07-16T10:41:58.656Z,48.54
2023-07-16T10:43:01.781Z,48.35
2023-07-16T10:44:04.799Z,49.49
2023-07-16T10:45:09.620Z,49.02
2023-07-16T10:46:11.879Z,49.57
2023-07-16T10:47:22.602Z,49.40
2023-07-16T10:48:26.536Z,49.38
2023-07-16T10:49:30.356Z,48.74
2023-07-16T10:50:33.666Z,48.70
2023-07-16T10:51:37.576Z,48.08
2023-07-16T10:52:39.550Z,47.91
2023-07-16T10:53:44.787Z,48.89
2023-07-16T10:54:46.879Z,49.16
2023-07-16T10:55:49.908Z,49.55
2023-07-16T10:56:52.773Z,49.79
2023-07-16T10:57:55.926Z,49.98
2023-07-16T10:58:58.013Z,49.85
2023-07-16T11:00:02.273Z,50.26
2023-07-16T11:01:04.475Z,50.03
2023-07-16T11:02:12.063Z,49.94
2023-07-16T11:03:16.508Z,49.45
2023-07-16T11:04:19.583Z,49.02
2023-07-16T11:05:21.597Z,48.31
2023-07-16T11:06:24.645Z,48.59
2023-07-16T11:07:27.628Z,49.03
2023-07-16T11:08:29.717Z,48.91
2023-07-16T11:09:34.454Z,48.88
2023-07-16T11:10:36.513Z,48.60
2023-07-16T11:11:41.465Z,47.98
2023-07-16T11:12:44.188Z,47.71
2023-07-16T11:13:48.766Z,48.04
2023-07-16T11:14:52.862Z,48.12
2023-07-16T11:15:55.985Z,47.71
2023-07-16T11:17:07.018Z,48.19
2023-07-16T11:18:10.317Z,48.10
2023-07-16T11:19:12.562Z,48.29
2023-07-16T11:20:15.567Z,48.80
2023-07-16T11:21:20.044Z,49.39
2023-07-16T11:22:27.125Z,49.76
2023-07-16T11:23:29.151Z,50.22
2023-07-16T11:24:41.498Z,49.56
2023-07-16T11:25:47.447Z,50.08
2023-07-16T11:26:53.183Z,49.32
2023-07-16T11:27:55.924Z,49.61
2023-07-16T11:28:58.801Z,49.83
2023-07-16T11:30:01.663Z,50.26
2023-07-16T11:31:12.485Z,50.74
2023-07-16T11:32:15.800Z,51.02
2023-07-16T11:33:18.957Z,50.85
2023-07-16T11:34:22.314Z,49.96
2023-07-16T11:35:25.380Z,49.98
2023-07-16T11:36:29.958Z,50.04
2023-07-16T11:37:34.438Z,50.44
2023-07-16T11:38:38.181Z,50.56
2023-07-16T11:39:42.618Z,50.22
2023-07-16T11:40:44.582Z,49.66
2023-07-16T11:41:58.876Z,49.91
2023-07-16T11:43:09.304Z,50.63
2023-07-16T11:44:14.322Z,50.63
2023-07-16T11:45:18.207Z,50.13
2023-07-16T11:46:21.672Z,50.69
2023-07-16T11:47:24.146Z,50.96
2023-07-16T11:48:27.248Z,50.35
2023-07-16T11:49:29.376Z,50.54
2023-07-16T11:50:32.380Z,49.74
2023-07-16T11:51:34.575Z,49.73
2023-07-16T11:52:37.618Z,49.35
2023-07-16T11:53:40.135Z,49.20
2023-07-16T11:54:44.688Z,48.80
2023-07-16T11:55:46.585Z,48.74
2023-07-16T11:56:49.493Z,48.87
2023-07-16T11:57:51.665Z,49.39
2023-07-16T11:58:54.510Z,49.19
2023-07-16T11:59:56.885Z,49.85
2023-07-16T12:00:59.871Z,50.56
2023-07-16T12:02:02.100Z,50.78
2023-07-16T12:03:05.193Z,50.72
2023-07-16T12:04:07.195Z,50.87
2023-07-16T12:05:12.228Z,50.36
2023-07-16T12:06:16.148Z,50.67
2023-07-16T12:07:33.527Z,50.35
2023-07-16T12:08:36.054Z,50.21
2023-07-16T12:09:39.232Z,50.40
2023-07-16T12:10:42.541Z,50.28
2023-07-16T12:11:45.570Z,49.55
2023-07-16T12:12:47.739Z,49.93
2023-07-16T12:13:50.670Z,50.03
2023-07-16T12:14:52.770Z,50.97
2023-07-16T12:15:55.695Z,52.37
2023-07-16T12:16:57.968Z,51.93
2023-07-16T12:18:01.000Z,51.44
2023-07-16T12:19:03.594Z,51.11
2023-07-16T12:20:08.108Z,52.67
2023-07-16T12:21:10.203Z,52.04
2023-07-16T12:22:14.130Z,51.83
2023-07-16T12:23:16.085Z,52.91
2023-07-16T12:24:19.064Z,51.97
2023-07-16T12:25:21.327Z,51.94
2023-07-16T12:26:26.781Z,52.60
2023-07-16T12:27:28.854Z,51.78
2023-07-16T12:28:34.196Z,52.51
2023-07-16T12:29:36.503Z,52.89
2023-07-16T12:30:40.122Z,51.72
2023-07-16T12:31:42.602Z,51.62
2023-07-16T12:32:45.645Z,51.95
2023-07-16T12:33:47.973Z,51.30
2023-07-16T12:34:51.027Z,50.59
2023-07-16T12:35:53.235Z,51.09
2023-07-16T12:36:57.826Z,51.20
2023-07-16T12:37:59.780Z,51.26
2023-07-16T12:39:02.677Z,51.08
2023-07-16T12:40:05.546Z,51.92
2023-07-16T12:41:08.518Z,51.95
2023-07-16T12:42:11.771Z,51.43
2023-07-16T12:43:14.647Z,51.40
2023-07-16T12:44:16.607Z,51.71
2023-07-16T12:45:19.594Z,51.14
2023-07-16T12:46:21.652Z,50.97
2023-07-16T12:47:24.806Z,51.02
2023-07-16T12:48:26.781Z,50.37
2023-07-16T12:49:29.801Z,51.53
2023-07-16T12:50:31.782Z,50.84
2023-07-16T12:51:34.799Z,52.24
2023-07-16T12:52:36.714Z,51.97
2023-07-16T12:53:39.590Z,51.15
2023-07-16T12:54:41.537Z,50.95
2023-07-16T12:55:44.720Z,51.14
2023-07-16T12:56:46.783Z,51.32
2023-07-16T12:57:51.093Z,50.65
2023-07-16T12:58:53.139Z,50.29
2023-07-16T12:59:56.028Z,49.48
2023-07-16T13:00:58.144Z,50.21
2023-07-16T13:02:01.210Z,50.89
2023-07-16T13:03:03.945Z,51.78
2023-07-16T13:04:06.974Z,50.57
2023-07-16T13:05:09.429Z,50.09
2023-07-16T13:06:12.553Z,50.37
2023-07-16T13:07:14.614Z,52.07
2023-07-16T13:08:17.486Z,50.01
2023-07-16T13:09:19.470Z,51.06
2023-07-16T13:10:23.804Z,50.19
2023-07-16T13:11:26.259Z,50.92
2023-07-16T13:12:29.359Z,50.57
2023-07-16T13:13:32.708Z,49.33
2023-07-16T13:14:35.606Z,49.16
2023-07-16T13:15:37.950Z,50.30
2023-07-16T13:16:40.951Z,50.92
2023-07-16T13:17:42.978Z,49.40
2023-07-16T13:18:46.079Z,49.80
2023-07-16T13:19:48.493Z,49.70
2023-07-16T13:20:51.499Z,47.83
2023-07-16T13:21:53.382Z,49.64
2023-07-16T13:22:56.403Z,48.23
2023-07-16T13:23:58.664Z,49.41
2023-07-16T13:25:01.833Z,48.83
2023-07-16T13:26:04.054Z,50.16
2023-07-16T13:27:07.235Z,49.26
2023-07-16T13:28:09.356Z,51.16
2023-07-16T13:29:13.654Z,48.51
2023-07-16T13:30:15.734Z,48.68
2023-07-16T13:31:19.441Z,48.41
2023-07-16T13:32:21.407Z,49.71
2023-07-16T13:33:24.626Z,49.57
2023-07-16T13:34:26.767Z,49.34
2023-07-16T13:35:30.077Z,49.29
2023-07-16T13:36:31.955Z,49.75
2023-07-16T13:37:34.952Z,49.43